Airfield :







YOU CAN JOIN US ON...

 
LOGIN :

Register | Disclaimer

   EN    FR    IT 

 









Legend :    VFR   Marginal VFR   IFR   Intensive IFR   Very Intensive IFR
Visi :
Ceiling :
>= 8 km
>= 3000ft
5 to 8 km
1000 to 3000 ft
1500m to 5 km
500 to 1000 ft
800 to 1500m
200 to 500 ft
< 800m
< 200 ft
Symbols :   Thunderstorms  Fog  Heavy snow  Heavy precipitations  Wind > 20 kt







- Airport Elevation : 241 ft
- IATA code : CEF


KCEF - Westover ARB/Metropolitan

CURRENT METAR :
  • 221256Z 02007KT 10SM FEW050 BKN110 14/13 A3008 RMK AO2A SLP192 T01440131

EXPIRED METARs :
  • 221156Z 00000KT 10SM FEW014 BKN050 BKN110 12/12 A3009 RMK AO2A SLP196 70004 T01170115 10117 20090 53008
  • 221056Z 00000KT 10SM BKN013 OVC050 10/10 A3009 RMK AO2A SLP196 T01040102

TAF AMD TAF KCEF
Valid from the 22 at 11:00 until the 23 at 16:00 UTC


221105Z 2211/2316 VRB06KT 9999 BKN013 BKN200 QNH3004INS
TEMPO 2211/2213 SCT015 BKN050
BECMG 2212/2213 03012KT 9999 SCT030 BKN110 BKN200 QNH2998INS
TEMPO 2216/2220 02012G18KT
BECMG 2219/2220 02010G15KT 9999 BKN030 OVC100 QNH2995INS
TEMPO 2222/2306 8000 -SHRA BR BKN015 OVC060
BECMG 2305/2306 35009KT 9999 OVC010 QNH2995INS
BECMG 2307/2308 35009KT 9999 OVC020 QNH2995INS
BECMG 2309/2310 35009KT 9999 BKN035 QNH2998INS TX19/2220Z TN11/2211Z
KZBW FIR / North America



MET'MAP, your aeronautical weather chart ! - Copyright ORBIFLY December 2007 - Disclaimer

ORBIFLY MET'MAP TEAM :

Programming & Development : Alexandra Zaïnal
Concept & Development : Baudouin d'Aumeries
Co-Development & Prog : Marc-Olivier Méhu
Technical & hardware support : Manuel Goepfert

Contact : metmap@orbifly.com




SOURCES & CREDITS :

   NOAA